createdAt,value
2023-03-22T00:01:53.727Z,42.50
2023-03-22T00:04:18.128Z,43.95
2023-03-22T00:06:45.440Z,43.72
2023-03-22T00:09:10.224Z,45.53
2023-03-22T00:11:35.932Z,44.78
2023-03-22T00:14:00.845Z,44.03
2023-03-22T00:16:25.535Z,43.92
2023-03-22T00:18:51.515Z,45.95
2023-03-22T00:21:17.723Z,43.25
2023-03-22T00:23:42.458Z,45.03
2023-03-22T00:26:07.692Z,45.80
2023-03-22T00:28:32.176Z,43.60
2023-03-22T00:30:59.149Z,44.75
2023-03-22T00:33:25.254Z,43.58
2023-03-22T00:35:52.576Z,44.35
2023-03-22T00:38:17.384Z,44.08
2023-03-22T00:40:42.459Z,44.40
2023-03-22T00:43:06.910Z,44.72
2023-03-22T00:45:31.456Z,44.72
2023-03-22T00:47:56.080Z,44.33
2023-03-22T00:50:20.759Z,44.60
2023-03-22T00:52:47.819Z,44.53
2023-03-22T00:55:12.572Z,43.75
2023-03-22T00:57:37.937Z,46.40
2023-03-22T01:00:09.964Z,44.33
2023-03-22T01:02:35.056Z,44.08
2023-03-22T01:04:59.555Z,46.85
2023-03-22T01:07:24.695Z,46.92
2023-03-22T01:09:50.847Z,45.55
2023-03-22T01:12:16.147Z,43.70
2023-03-22T01:14:40.880Z,44.28
2023-03-22T01:17:05.451Z,44.33
2023-03-22T01:19:30.039Z,46.72
2023-03-22T01:21:54.911Z,45.85
2023-03-22T01:24:21.089Z,45.55
2023-03-22T01:26:47.536Z,47.10
2023-03-22T01:29:12.074Z,46.45
2023-03-22T01:31:37.204Z,46.25
2023-03-22T01:34:01.620Z,47.63
2023-03-22T01:36:26.841Z,47.58
2023-03-22T01:38:51.386Z,49.40
2023-03-22T01:41:17.381Z,47.40
2023-03-22T01:43:44.336Z,47.25
2023-03-22T01:46:10.083Z,47.70
2023-03-22T01:48:42.125Z,47.40
2023-03-22T01:51:11.455Z,48.95
2023-03-22T01:53:58.814Z,45.40
2023-03-22T01:56:26.995Z,46.72
2023-03-22T01:58:55.850Z,47.63
2023-03-22T02:01:28.734Z,47.00
2023-03-22T02:03:58.748Z,47.25
2023-03-22T02:08:58.092Z,45.30
2023-03-22T02:11:30.534Z,46.92
2023-03-22T02:14:17.953Z,45.35
2023-03-22T02:17:32.635Z,45.55
2023-03-22T02:20:40.179Z,46.35
2023-03-22T02:23:44.795Z,48.20
2023-03-22T02:26:54.731Z,46.72
2023-03-22T02:32:28.556Z,45.63
2023-03-22T02:35:35.832Z,47.65
2023-03-22T02:39:00.948Z,48.58
2023-03-22T02:41:36.536Z,46.15
2023-03-22T02:44:10.045Z,44.75
2023-03-22T02:46:42.112Z,46.97
2023-03-22T02:49:17.473Z,44.85
2023-03-22T02:51:46.179Z,43.40
2023-03-22T02:54:14.665Z,44.08
2023-03-22T02:56:44.061Z,45.17
2023-03-22T02:59:14.994Z,45.85
2023-03-22T03:01:42.415Z,44.35
2023-03-22T03:04:14.113Z,44.17
2023-03-22T03:06:46.282Z,45.63
2023-03-22T03:09:13.855Z,43.70
2023-03-22T03:11:38.482Z,42.30
2023-03-22T03:14:04.819Z,44.60
2023-03-22T03:16:35.149Z,43.13
2023-03-22T03:19:04.109Z,42.95
2023-03-22T03:21:36.989Z,42.10
2023-03-22T03:24:15.596Z,41.83
2023-03-22T03:26:48.258Z,43.35
2023-03-22T03:29:21.747Z,44.78
2023-03-22T03:31:52.263Z,42.97
2023-03-22T03:34:21.783Z,44.00
2023-03-22T03:36:54.680Z,44.42
2023-03-22T03:39:20.810Z,44.08
2023-03-22T03:41:47.189Z,43.83
2023-03-22T03:44:14.930Z,43.05
2023-03-22T03:46:42.902Z,41.42
2023-03-22T03:49:10.010Z,40.63
2023-03-22T03:51:46.010Z,41.35
2023-03-22T03:54:10.624Z,42.58
2023-03-22T03:56:35.151Z,42.53
2023-03-22T03:58:59.651Z,40.92
2023-03-22T04:01:26.510Z,40.17
2023-03-22T04:04:06.871Z,41.55
2023-03-22T04:06:53.186Z,42.80
2023-03-22T04:09:21.671Z,41.55
2023-03-22T04:11:51.550Z,42.63
2023-03-22T04:14:34.896Z,41.47
2023-03-22T04:17:07.684Z,42.88
2023-03-22T04:19:33.377Z,40.58
2023-03-22T04:21:58.273Z,42.97
2023-03-22T04:24:23.486Z,40.97
2023-03-22T04:26:50.792Z,40.40
2023-03-22T04:29:23.089Z,40.38
2023-03-22T04:34:35.164Z,41.00
2023-03-22T04:37:03.206Z,38.95
2023-03-22T04:39:34.157Z,39.50
2023-03-22T04:42:22.179Z,42.40
2023-03-22T04:44:53.734Z,41.83
2023-03-22T04:47:18.526Z,39.28
2023-03-22T04:49:44.563Z,39.83
2023-03-22T04:52:09.685Z,39.80
2023-03-22T04:54:35.004Z,39.20
2023-03-22T04:57:01.057Z,40.13
2023-03-22T04:59:29.582Z,40.83
2023-03-22T05:01:56.169Z,37.58
2023-03-22T05:04:25.034Z,39.25
2023-03-22T05:06:57.773Z,38.58
2023-03-22T05:09:29.020Z,41.28
2023-03-22T05:11:56.602Z,39.15
2023-03-22T05:14:41.371Z,39.28
2023-03-22T05:17:08.315Z,38.90
2023-03-22T05:19:34.915Z,37.22
2023-03-22T05:22:02.251Z,39.20
2023-03-22T05:24:47.316Z,38.97
2023-03-22T05:27:19.141Z,38.42
2023-03-22T05:29:46.854Z,36.10
2023-03-22T05:32:25.734Z,38.90
2023-03-22T05:34:52.585Z,40.85
2023-03-22T05:37:25.882Z,39.42
2023-03-22T05:39:54.397Z,37.20
2023-03-22T05:42:23.721Z,39.50
2023-03-22T05:44:49.513Z,38.47
2023-03-22T05:47:14.440Z,39.67
2023-03-22T05:50:13.348Z,39.03
2023-03-22T05:52:40.069Z,40.40
2023-03-22T05:55:20.678Z,39.80
2023-03-22T05:57:47.782Z,37.67
2023-03-22T06:00:16.964Z,37.83
2023-03-22T06:03:03.834Z,37.95
2023-03-22T06:05:31.970Z,36.83
2023-03-22T06:07:57.819Z,36.45
2023-03-22T06:10:24.236Z,33.95
2023-03-22T06:12:49.064Z,34.20
2023-03-22T06:15:22.074Z,36.90
2023-03-22T06:17:55.522Z,34.13
2023-03-22T06:20:25.640Z,34.10
2023-03-22T06:22:58.618Z,36.28
2023-03-22T06:25:23.468Z,33.70
2023-03-22T06:27:49.250Z,33.85
2023-03-22T06:30:15.072Z,35.65
2023-03-22T06:32:57.172Z,35.75
2023-03-22T06:35:21.702Z,33.75
2023-03-22T06:37:48.054Z,33.78
2023-03-22T06:40:14.337Z,34.58
2023-03-22T06:42:38.886Z,35.35
2023-03-22T06:45:09.762Z,35.67
2023-03-22T06:47:36.289Z,33.72
2023-03-22T06:50:16.074Z,33.08
2023-03-22T06:53:01.481Z,34.38
2023-03-22T06:55:27.616Z,34.25
2023-03-22T06:57:52.931Z,34.55
2023-03-22T07:00:18.944Z,33.67
2023-03-22T07:02:47.491Z,34.00
2023-03-22T07:05:27.992Z,33.70
2023-03-22T07:07:52.729Z,34.55
2023-03-22T07:10:17.214Z,34.22
2023-03-22T07:12:43.138Z,33.88
2023-03-22T07:15:12.287Z,34.38
2023-03-22T07:17:54.122Z,33.13
2023-03-22T07:20:18.869Z,32.53
2023-03-22T07:22:46.526Z,35.10
2023-03-22T07:25:13.220Z,32.85
2023-03-22T07:27:39.275Z,34.33
2023-03-22T07:30:07.719Z,34.03
2023-03-22T07:32:37.685Z,34.20
2023-03-22T07:35:06.412Z,30.13
2023-03-22T07:37:31.007Z,32.10
2023-03-22T07:39:55.708Z,36.80
2023-03-22T07:42:22.352Z,36.58
2023-03-22T07:45:14.594Z,34.20
2023-03-22T07:47:41.872Z,31.05
2023-03-22T07:50:21.809Z,29.50
2023-03-22T07:52:54.252Z,31.52
2023-03-22T07:55:18.989Z,31.85
2023-03-22T07:57:43.424Z,31.35
2023-03-22T08:00:11.145Z,32.55
2023-03-22T08:02:48.259Z,30.55
2023-03-22T08:05:29.860Z,32.30
2023-03-22T08:08:01.672Z,31.67
2023-03-22T08:10:26.426Z,31.48
2023-03-22T08:12:52.024Z,31.15
2023-03-22T08:15:23.423Z,27.92
2023-03-22T08:17:50.287Z,29.60
2023-03-22T08:20:29.290Z,31.52
2023-03-22T08:22:58.239Z,32.90
2023-03-22T08:25:25.748Z,32.45
2023-03-22T08:27:53.252Z,32.05
2023-03-22T08:30:18.063Z,29.08
2023-03-22T08:32:45.207Z,29.20
2023-03-22T08:35:12.784Z,30.40
2023-03-22T08:37:37.887Z,32.65
2023-03-22T08:40:07.381Z,27.02
2023-03-22T08:42:46.589Z,30.52
2023-03-22T08:45:12.119Z,32.35
2023-03-22T08:47:46.097Z,31.02
2023-03-22T08:50:13.497Z,32.53
2023-03-22T08:52:47.278Z,32.33
2023-03-22T08:55:29.724Z,33.17
2023-03-22T08:58:06.598Z,33.53
2023-03-22T09:01:06.887Z,31.60
2023-03-22T09:03:40.738Z,33.42
2023-03-22T09:06:07.948Z,33.75
2023-03-22T09:11:06.253Z,33.13
2023-03-22T09:13:32.016Z,32.35
2023-03-22T09:15:59.332Z,32.85
2023-03-22T09:18:28.452Z,34.97
2023-03-22T09:20:57.716Z,32.97
2023-03-22T09:23:30.413Z,32.47
2023-03-22T09:25:54.976Z,32.90
2023-03-22T09:28:24.019Z,32.58
2023-03-22T09:30:51.390Z,35.17
2023-03-22T09:33:15.955Z,34.85
2023-03-22T09:35:43.746Z,32.92
2023-03-22T09:38:11.055Z,33.95
2023-03-22T09:40:39.322Z,34.60
2023-03-22T09:43:07.359Z,33.67
2023-03-22T09:48:07.156Z,33.67
2023-03-22T09:50:34.241Z,35.63
2023-03-22T09:52:59.066Z,35.22
2023-03-22T09:55:29.011Z,34.58
2023-03-22T09:58:04.288Z,35.47
2023-03-22T10:00:39.588Z,33.58
2023-03-22T10:03:17.497Z,33.63
2023-03-22T10:05:48.620Z,34.63
2023-03-22T10:08:32.314Z,34.15
2023-03-22T10:10:58.061Z,34.90
2023-03-22T10:13:28.240Z,34.88
2023-03-22T10:15:54.918Z,36.88
2023-03-22T10:18:22.506Z,36.85
2023-03-22T10:20:52.251Z,35.38
2023-03-22T10:23:23.540Z,35.25
2023-03-22T10:25:53.275Z,34.35
2023-03-22T10:28:21.591Z,33.58
2023-03-22T10:30:53.571Z,34.17
2023-03-22T10:33:24.974Z,35.08
2023-03-22T10:35:50.659Z,32.92
2023-03-22T10:38:22.349Z,35.28
2023-03-22T10:40:48.443Z,35.03
2023-03-22T10:43:22.470Z,35.40
2023-03-22T10:45:48.650Z,34.70
2023-03-22T10:48:19.391Z,36.00
2023-03-22T10:50:46.901Z,36.60
2023-03-22T10:53:20.744Z,34.97
2023-03-22T10:55:46.045Z,35.65
2023-03-22T10:58:15.769Z,35.33
2023-03-22T11:00:44.872Z,35.63
2023-03-22T11:03:24.174Z,33.92
2023-03-22T11:06:00.584Z,35.47
2023-03-22T11:08:37.482Z,33.63
2023-03-22T11:11:03.904Z,34.25
2023-03-22T11:13:29.060Z,34.08
2023-03-22T11:15:56.924Z,35.20
2023-03-22T11:18:30.893Z,34.83
2023-03-22T11:20:59.530Z,35.53
2023-03-22T11:23:25.402Z,34.95
2023-03-22T11:25:51.999Z,34.50
2023-03-22T11:28:20.118Z,34.13
2023-03-22T11:31:00.118Z,35.33
2023-03-22T11:35:57.566Z,34.35
2023-03-22T11:38:38.200Z,35.72
2023-03-22T11:41:05.657Z,35.50
2023-03-22T11:43:35.563Z,33.58
2023-03-22T11:48:31.705Z,31.95
2023-03-22T11:51:00.464Z,33.25
2023-03-22T11:53:27.599Z,31.30
2023-03-22T11:55:55.212Z,32.53
2023-03-22T11:58:28.215Z,32.08
2023-03-22T12:00:54.750Z,32.25
2023-03-22T12:03:23.155Z,31.98
2023-03-22T12:05:52.050Z,31.50
2023-03-22T12:08:25.044Z,31.42
2023-03-22T12:10:53.727Z,32.65
2023-03-22T12:13:22.610Z,32.92
2023-03-22T12:15:54.646Z,33.50
2023-03-22T12:18:26.598Z,32.65
2023-03-22T12:20:56.842Z,31.50
2023-03-22T12:23:23.993Z,30.75
2023-03-22T12:25:52.790Z,31.38
2023-03-22T12:28:21.515Z,32.33
2023-03-22T12:30:49.365Z,31.80
2023-03-22T12:33:19.635Z,32.20
2023-03-22T12:35:46.825Z,33.75
2023-03-22T12:38:27.861Z,33.80
2023-03-22T12:40:56.132Z,32.33
2023-03-22T12:43:29.296Z,32.75
2023-03-22T12:46:00.441Z,31.35
2023-03-22T12:48:33.678Z,38.42
2023-03-22T12:51:01.334Z,34.53
2023-03-22T12:53:31.816Z,31.02
2023-03-22T12:55:58.411Z,30.40
2023-03-22T12:58:27.076Z,31.13
2023-03-22T13:00:56.367Z,32.33
2023-03-22T13:03:28.790Z,32.40
2023-03-22T13:06:03.214Z,31.23
2023-03-22T13:09:19.293Z,33.00
2023-03-22T13:11:46.782Z,36.00
2023-03-22T13:14:15.406Z,32.75
2023-03-22T13:16:53.346Z,32.78
2023-03-22T13:19:37.697Z,32.53
2023-03-22T13:22:21.152Z,35.35
2023-03-22T13:25:29.119Z,37.25
2023-03-22T13:27:57.984Z,37.92
2023-03-22T13:30:26.475Z,39.28
2023-03-22T13:32:56.470Z,40.22
2023-03-22T13:35:28.111Z,42.77
2023-03-22T13:37:53.460Z,38.95
2023-03-22T13:40:31.303Z,41.47
2023-03-22T13:42:55.930Z,40.15
2023-03-22T13:45:32.531Z,43.28
2023-03-22T13:48:05.988Z,41.63
2023-03-22T13:50:32.891Z,40.83
2023-03-22T13:53:05.120Z,41.67
2023-03-22T13:55:43.934Z,42.97
2023-03-22T13:58:12.299Z,42.80
2023-03-22T14:00:54.116Z,40.28
2023-03-22T14:03:29.035Z,41.83
2023-03-22T14:06:09.607Z,40.75
2023-03-22T14:08:37.609Z,33.25
2023-03-22T14:11:13.890Z,33.33
2023-03-22T14:13:49.391Z,31.80
2023-03-22T14:16:19.551Z,32.38
2023-03-22T14:18:46.842Z,34.28
2023-03-22T14:21:17.789Z,32.08
